createdAt,value
2019-02-28T00:00:50.248Z,15.91
2019-02-28T00:01:50.242Z,15.91
2019-02-28T00:02:50.228Z,15.91
2019-02-28T00:03:50.192Z,15.91
2019-02-28T00:04:50.170Z,16
2019-02-28T00:05:50.152Z,16
2019-02-28T00:06:50.136Z,15.91
2019-02-28T00:07:52.128Z,15.91
2019-02-28T00:08:50.965Z,15.91
2019-02-28T00:09:50.069Z,16.19
2019-02-28T00:10:50.062Z,16
2019-02-28T00:11:50.030Z,16
2019-02-28T00:12:51.046Z,15.91
2019-02-28T00:13:52.272Z,15.91
2019-02-28T00:14:49.971Z,15.81
2019-02-28T00:15:49.945Z,15.91
2019-02-28T00:16:49.930Z,16
2019-02-28T00:17:49.903Z,16.09
2019-02-28T00:18:52.847Z,15.81
2019-02-28T00:19:49.864Z,15.91
2019-02-28T00:20:50.106Z,16
2019-02-28T00:21:49.834Z,16
2019-02-28T00:22:51.683Z,15.81
2019-02-28T00:23:49.539Z,15.81
2019-02-28T00:24:49.527Z,15.91
2019-02-28T00:25:49.742Z,15.91
2019-02-28T00:26:50.331Z,15.91
2019-02-28T00:27:52.613Z,15.81
2019-02-28T00:28:49.669Z,16
2019-02-28T00:29:49.662Z,15.91
2019-02-28T00:30:49.634Z,16
2019-02-28T00:31:53.006Z,15.71
2019-02-28T00:32:49.586Z,16.09
2019-02-28T00:33:49.612Z,15.91
2019-02-28T00:34:49.557Z,15.91
2019-02-28T00:35:49.527Z,15.61
2019-02-28T00:36:50.265Z,15.61
2019-02-28T00:37:49.492Z,15.81
2019-02-28T00:38:49.478Z,16.09
2019-02-28T00:39:49.447Z,15.91
2019-02-28T00:40:49.420Z,15.91
2019-02-28T00:41:49.399Z,15.61
2019-02-28T00:42:52.863Z,15.91
2019-02-28T00:43:49.365Z,15.91
2019-02-28T00:44:49.348Z,16
2019-02-28T00:45:49.074Z,15.91
2019-02-28T00:46:49.310Z,15.91
2019-02-28T00:47:50.683Z,16.09
2019-02-28T00:48:49.265Z,16
2019-02-28T00:49:49.234Z,15.91
2019-02-28T00:50:49.211Z,15.81
2019-02-28T00:51:49.198Z,16.09
2019-02-28T00:52:49.182Z,15.91
2019-02-28T00:53:49.158Z,15.91
2019-02-28T00:54:49.130Z,16
2019-02-28T00:55:49.423Z,15.81
2019-02-28T00:56:54.039Z,15.81
2019-02-28T00:57:49.078Z,16
2019-02-28T00:58:49.047Z,15.91
2019-02-28T00:59:49.031Z,15.91
2019-02-28T01:00:49.003Z,16.09
2019-02-28T01:01:49.399Z,16
2019-02-28T01:02:54.581Z,15.81
2019-02-28T01:03:48.948Z,16.09
2019-02-28T01:04:48.918Z,15.99
2019-02-28T01:05:48.668Z,15.99
2019-02-28T01:06:48.892Z,16
2019-02-28T01:07:50.685Z,16.09
2019-02-28T01:08:48.836Z,15.99
2019-02-28T01:09:48.825Z,15.89
2019-02-28T01:10:48.571Z,15.89
2019-02-28T01:11:48.781Z,15.99
2019-02-28T01:12:53.040Z,15.89
2019-02-28T01:13:48.733Z,15.8
2019-02-28T01:14:48.722Z,15.61
2019-02-28T01:15:48.708Z,15.8
2019-02-28T01:16:50.142Z,15.89
2019-02-28T01:17:48.648Z,15.89
2019-02-28T01:18:48.640Z,15.89
2019-02-28T01:19:48.614Z,15.7
2019-02-28T01:20:52.457Z,15.99
2019-02-28T01:21:48.573Z,16.09
2019-02-28T01:22:48.543Z,16.09
2019-02-28T01:23:48.531Z,15.8
2019-02-28T01:24:48.515Z,15.99
2019-02-28T01:25:48.525Z,15.61
2019-02-28T01:26:49.651Z,15.89
2019-02-28T01:27:48.447Z,15.89
2019-02-28T01:28:48.437Z,15.61
2019-02-28T01:29:48.409Z,15.89
2019-02-28T01:30:48.384Z,15.89
2019-02-28T01:31:48.363Z,15.89
2019-02-28T01:32:52.446Z,15.99
2019-02-28T01:33:48.327Z,16.09
2019-02-28T01:34:48.294Z,15.8
2019-02-28T01:35:48.284Z,16.09
2019-02-28T01:36:51.890Z,15.99
2019-02-28T01:37:48.242Z,15.99
2019-02-28T01:38:47.979Z,16.09
2019-02-28T01:39:48.194Z,15.89
2019-02-28T01:40:48.171Z,15.99
2019-02-28T01:41:48.287Z,15.8
2019-02-28T01:42:48.140Z,15.89
2019-02-28T01:43:48.110Z,15.89
2019-02-28T01:44:48.086Z,15.89
2019-02-28T01:45:48.065Z,16.09
2019-02-28T01:46:50.955Z,16.09
2019-02-28T01:47:48.028Z,15.89
2019-02-28T01:48:48.013Z,15.89
2019-02-28T01:49:47.981Z,15.99
2019-02-28T01:50:47.971Z,15.99
2019-02-28T01:51:47.950Z,15.8
2019-02-28T01:52:48.597Z,15.99
2019-02-28T01:53:50.356Z,15.8
2019-02-28T01:54:47.877Z,15.99
2019-02-28T01:55:47.862Z,15.61
2019-02-28T01:56:47.843Z,16.19
2019-02-28T01:57:47.819Z,16.09
2019-02-28T01:58:50.336Z,15.8
2019-02-28T01:59:47.779Z,15.89
2019-02-28T02:00:47.770Z,15.8
2019-02-28T02:01:47.741Z,15.8
2019-02-28T02:02:47.719Z,15.99
2019-02-28T02:03:47.695Z,15.89
2019-02-28T02:04:48.282Z,15.8
2019-02-28T02:05:48.258Z,15.89
2019-02-28T02:06:47.626Z,16.09
2019-02-28T02:07:47.609Z,15.99
2019-02-28T02:08:47.583Z,15.8
2019-02-28T02:09:49.211Z,15.61
2019-02-28T02:10:47.552Z,16.09
2019-02-28T02:11:47.525Z,15.99
2019-02-28T02:12:47.506Z,15.61
2019-02-28T02:13:47.490Z,15.8
2019-02-28T02:14:48.191Z,15.8
2019-02-28T02:15:50.717Z,15.61
2019-02-28T02:16:47.418Z,16.09
2019-02-28T02:17:47.394Z,15.61
2019-02-28T02:18:47.383Z,15.89
2019-02-28T02:19:49.326Z,15.89
2019-02-28T02:20:47.343Z,16.19
2019-02-28T02:21:47.309Z,15.8
2019-02-28T02:22:47.975Z,15.8
2019-02-28T02:23:49.545Z,15.89
2019-02-28T02:24:47.260Z,15.89
2019-02-28T02:25:47.229Z,15.89
2019-02-28T02:26:47.630Z,16.19
2019-02-28T02:27:47.194Z,15.89
2019-02-28T02:28:47.174Z,15.89
2019-02-28T02:29:47.148Z,15.89
2019-02-28T02:30:53.126Z,15.99
2019-02-28T02:31:47.108Z,15.7
2019-02-28T02:32:47.087Z,15.8
2019-02-28T02:33:53.622Z,15.89
2019-02-28T02:34:47.057Z,15.61
2019-02-28T02:35:47.030Z,15.89
2019-02-28T02:36:52.923Z,15.8
2019-02-28T02:37:46.986Z,16.09
2019-02-28T02:38:46.965Z,15.51
2019-02-28T02:39:50.060Z,15.89
2019-02-28T02:40:46.925Z,15.8
2019-02-28T02:41:46.903Z,15.8
2019-02-28T02:42:52.053Z,15.89
2019-02-28T02:43:46.859Z,15.8
2019-02-28T02:44:46.841Z,15.8
2019-02-28T02:45:46.814Z,15.8
2019-02-28T02:46:46.788Z,15.99
2019-02-28T02:47:46.791Z,15.8
2019-02-28T02:48:46.761Z,15.59
2019-02-28T02:49:46.736Z,15.99
2019-02-28T02:50:46.721Z,15.8
2019-02-28T02:51:51.553Z,15.7
2019-02-28T02:52:46.688Z,15.61
2019-02-28T02:53:46.660Z,15.79
2019-02-28T02:54:46.617Z,15.99
2019-02-28T02:55:46.604Z,15.7
2019-02-28T02:56:46.611Z,15.8
2019-02-28T02:57:53.285Z,15.79
2019-02-28T02:58:46.559Z,15.8
2019-02-28T02:59:46.517Z,15.51
2019-02-28T03:00:52.319Z,15.59
2019-02-28T03:01:46.478Z,15.8
2019-02-28T03:02:46.465Z,15.8
2019-02-28T03:03:46.723Z,15.61
2019-02-28T03:04:46.414Z,15.89
2019-02-28T03:05:46.386Z,15.61
2019-02-28T03:06:48.596Z,15.99
2019-02-28T03:07:46.373Z,15.8
2019-02-28T03:08:46.341Z,15.89
2019-02-28T03:09:47.215Z,15.99
2019-02-28T03:10:46.293Z,16.09
2019-02-28T03:11:46.268Z,15.99
2019-02-28T03:12:46.255Z,15.79
2019-02-28T03:13:46.684Z,15.61
2019-02-28T03:14:48.674Z,15.89
2019-02-28T03:15:46.187Z,15.79
2019-02-28T03:16:46.175Z,16.08
2019-02-28T03:17:50.709Z,15.89
2019-02-28T03:18:46.263Z,15.89
2019-02-28T03:19:46.103Z,16.18
2019-02-28T03:20:46.082Z,15.79
2019-02-28T03:21:54.046Z,15.59
2019-02-28T03:22:46.035Z,15.89
2019-02-28T03:23:46.047Z,15.69
2019-02-28T03:24:53.289Z,15.69
2019-02-28T03:25:45.986Z,16.08
2019-02-28T03:26:45.958Z,15.69
2019-02-28T03:27:45.970Z,15.79
2019-02-28T03:28:45.907Z,15.59
2019-02-28T03:29:47.124Z,15.99
2019-02-28T03:30:45.873Z,15.79
2019-02-28T03:31:59.427Z,15.99
2019-02-28T03:32:45.825Z,15.89
2019-02-28T03:33:45.849Z,15.89
2019-02-28T03:34:59.319Z,15.89
2019-02-28T03:35:46.780Z,15.99
2019-02-28T03:36:54.976Z,15.89
2019-02-28T03:37:45.730Z,16.18
2019-02-28T03:38:51.077Z,15.99
2019-02-28T03:39:45.682Z,15.89
2019-02-28T03:40:45.670Z,15.89
2019-02-28T03:41:49.004Z,15.89
2019-02-28T03:42:45.627Z,15.89
2019-02-28T03:43:46.623Z,15.89
2019-02-28T03:44:45.587Z,15.89
2019-02-28T03:45:45.556Z,15.99
2019-02-28T03:46:50.096Z,15.99
2019-02-28T03:47:45.543Z,15.79
2019-02-28T03:48:45.915Z,15.99
2019-02-28T03:49:51.163Z,15.89
2019-02-28T03:50:45.476Z,15.79
2019-02-28T03:51:45.439Z,15.89
2019-02-28T03:52:47.221Z,15.79
2019-02-28T03:53:45.385Z,15.89
2019-02-28T03:54:45.357Z,15.89
2019-02-28T03:55:45.347Z,15.79
2019-02-28T03:56:51.000Z,15.89
2019-02-28T03:57:45.315Z,15.79
2019-02-28T03:58:45.635Z,16.08
2019-02-28T03:59:45.258Z,16.08
2019-02-28T04:00:45.229Z,15.89
2019-02-28T04:01:48.772Z,15.89
2019-02-28T04:02:45.197Z,15.89
2019-02-28T04:03:45.177Z,15.89
2019-02-28T04:04:51.240Z,15.89
2019-02-28T04:05:45.149Z,15.99
2019-02-28T04:06:45.113Z,15.89
2019-02-28T04:07:52.172Z,15.89
2019-02-28T04:08:45.077Z,15.99
2019-02-28T04:09:47.473Z,16.08
2019-02-28T04:10:45.051Z,15.99
2019-02-28T04:11:44.999Z,15.99
2019-02-28T04:12:49.219Z,15.99
2019-02-28T04:13:44.955Z,15.89
2019-02-28T04:14:44.941Z,15.69
2019-02-28T04:16:08.225Z,15.89
2019-02-28T04:16:44.902Z,15.99
2019-02-28T04:17:44.867Z,15.99
2019-02-28T04:18:48.723Z,15.79
2019-02-28T04:19:44.832Z,15.79
2019-02-28T04:20:44.817Z,15.79
2019-02-28T04:21:48.866Z,15.79
2019-02-28T04:22:44.799Z,15.79
2019-02-28T04:23:44.748Z,15.79
2019-02-28T04:24:48.864Z,15.69
2019-02-28T04:25:44.709Z,15.89
2019-02-28T04:26:44.677Z,15.59
2019-02-28T04:27:44.699Z,15.69
2019-02-28T04:28:44.635Z,15.59
2019-02-28T04:29:44.625Z,16.18
2019-02-28T04:30:46.293Z,16.18
2019-02-28T04:31:44.591Z,15.69
2019-02-28T04:32:44.553Z,15.79
2019-02-28T04:33:44.540Z,15.69
2019-02-28T04:34:45.704Z,15.69
2019-02-28T04:35:44.497Z,16.18
2019-02-28T04:36:44.461Z,15.98
2019-02-28T04:37:49.383Z,15.99
2019-02-28T04:38:44.433Z,15.69
2019-02-28T04:39:44.406Z,16.18
2019-02-28T04:40:44.383Z,16.18
2019-02-28T04:41:44.370Z,16.18
2019-02-28T04:42:44.349Z,16.18
2019-02-28T04:43:47.337Z,16.18
2019-02-28T04:44:44.308Z,16.28
2019-02-28T04:45:44.279Z,16.18
2019-02-28T04:46:44.263Z,16.18
2019-02-28T04:47:44.309Z,16.18
2019-02-28T04:48:45.586Z,16.28
2019-02-28T04:49:44.187Z,16.28
2019-02-28T04:50:44.167Z,16.28
2019-02-28T04:51:44.150Z,16.28
2019-02-28T04:52:49.249Z,16.08
2019-02-28T04:53:44.112Z,16.08
2019-02-28T04:54:44.081Z,16.28
2019-02-28T04:55:44.107Z,16.08
2019-02-28T04:56:47.558Z,16.08
2019-02-28T04:57:44.036Z,16.18
2019-02-28T04:58:44.045Z,16.18
2019-02-28T04:59:44.060Z,16.18
2019-02-28T05:00:43.954Z,16.18
2019-02-28T05:01:47.809Z,15.99
2019-02-28T05:02:43.920Z,15.99
2019-02-28T05:03:43.894Z,15.99
2019-02-28T05:04:44.317Z,15.99
2019-02-28T05:05:49.503Z,16.18
2019-02-28T05:06:44.219Z,15.99
2019-02-28T05:07:44.270Z,15.89
2019-02-28T05:08:43.787Z,16.18
2019-02-28T05:09:45.198Z,15.99
2019-02-28T05:10:43.753Z,15.99
2019-02-28T05:11:43.725Z,15.99
2019-02-28T05:12:43.697Z,16.08
2019-02-28T05:13:48.165Z,16.08
2019-02-28T05:14:43.674Z,16.08
2019-02-28T05:15:43.649Z,15.99
2019-02-28T05:16:49.617Z,16.08
2019-02-28T05:17:43.596Z,15.98
2019-02-28T05:18:43.582Z,16.08
2019-02-28T05:19:43.560Z,16.08
2019-02-28T05:20:47.608Z,15.99
2019-02-28T05:21:43.507Z,16.08
2019-02-28T05:22:43.295Z,16.08
2019-02-28T05:23:43.473Z,16.08
2019-02-28T05:24:45.061Z,16.08
2019-02-28T05:25:43.431Z,16.08
2019-02-28T05:26:43.400Z,16.08
2019-02-28T05:27:43.407Z,15.99
2019-02-28T05:28:43.789Z,15.99
2019-02-28T05:29:46.918Z,16.08
2019-02-28T05:30:43.973Z,16.08
2019-02-28T05:31:43.302Z,16.08
2019-02-28T05:32:43.271Z,16.08
2019-02-28T05:33:45.092Z,15.99
2019-02-28T05:34:43.233Z,16.08
2019-02-28T05:35:43.218Z,16.07
2019-02-28T05:36:43.190Z,15.99
2019-02-28T05:37:49.344Z,16.08
2019-02-28T05:38:43.156Z,16.07
2019-02-28T05:39:43.749Z,15.88
2019-02-28T05:40:43.926Z,16.18
2019-02-28T05:41:43.088Z,16.08
2019-02-28T05:42:43.070Z,16.17
2019-02-28T05:43:43.166Z,16.07
2019-02-28T05:44:43.347Z,16.18
2019-02-28T05:45:42.999Z,16.27
2019-02-28T05:46:42.989Z,16.07
2019-02-28T05:47:49.309Z,16.27
2019-02-28T05:48:42.947Z,15.98
2019-02-28T05:49:44.244Z,16.37
2019-02-28T05:50:42.901Z,16.17
2019-02-28T05:51:42.875Z,16.17
2019-02-28T05:52:42.865Z,16.17
2019-02-28T05:53:44.786Z,16.17
2019-02-28T05:54:42.807Z,16.17
2019-02-28T05:55:42.794Z,16.17
2019-02-28T05:56:42.793Z,16.36
2019-02-28T05:57:46.091Z,15.98
2019-02-28T05:58:42.744Z,16.18
2019-02-28T05:59:42.743Z,15.88
2019-02-28T06:00:42.677Z,16.56
2019-02-28T06:01:43.460Z,16.56
2019-02-28T06:02:42.716Z,16.28
2019-02-28T06:03:42.623Z,15.98
2019-02-28T06:04:42.602Z,16.46
2019-02-28T06:05:43.406Z,16.36
2019-02-28T06:06:42.559Z,16.28
2019-02-28T06:07:42.536Z,16.56
2019-02-28T06:08:42.545Z,15.98
2019-02-28T06:09:45.512Z,16.18
2019-02-28T06:10:42.469Z,16.36
2019-02-28T06:11:42.448Z,16.27
2019-02-28T06:12:45.488Z,16.46
2019-02-28T06:13:42.449Z,16.47
2019-02-28T06:14:42.411Z,16.46
2019-02-28T06:15:42.366Z,16.46
2019-02-28T06:16:46.122Z,16.46
2019-02-28T06:17:42.331Z,16.36
2019-02-28T06:18:42.436Z,16.56
2019-02-28T06:19:43.433Z,16.56
2019-02-28T06:20:42.270Z,16.96
2019-02-28T06:21:42.257Z,16.94
2019-02-28T06:22:42.212Z,16.75
2019-02-28T06:23:43.340Z,16.56
2019-02-28T06:24:44.733Z,16.76
2019-02-28T06:25:42.160Z,16.66
2019-02-28T06:26:42.132Z,16.46
2019-02-28T06:27:48.887Z,16.75
2019-02-28T06:28:42.082Z,16.94
2019-02-28T06:29:42.074Z,16.66
2019-02-28T06:30:44.038Z,16.66
2019-02-28T06:31:42.022Z,16.76
2019-02-28T06:32:42.011Z,16.75
2019-02-28T06:33:42.206Z,16.85
2019-02-28T06:34:44.802Z,16.96
2019-02-28T06:35:42.282Z,16.75
2019-02-28T06:36:41.929Z,16.66
2019-02-28T06:37:41.895Z,16.66
2019-02-28T06:38:41.887Z,16.85
2019-02-28T06:39:41.854Z,16.66
2019-02-28T06:40:41.836Z,16.56
2019-02-28T06:41:43.099Z,16.56
2019-02-28T06:42:43.414Z,16.46
2019-02-28T06:43:41.767Z,16.66
2019-02-28T06:44:41.750Z,16.46
2019-02-28T06:45:41.737Z,16.46
2019-02-28T06:46:43.084Z,16.46
2019-02-28T06:47:41.683Z,16.66
2019-02-28T06:48:41.676Z,16.66
2019-02-28T06:49:44.325Z,16.66
2019-02-28T06:50:44.638Z,16.56
2019-02-28T06:51:41.595Z,16.56
2019-02-28T06:52:41.570Z,16.56
2019-02-28T06:53:41.567Z,16.46
2019-02-28T06:54:43.419Z,16.46
2019-02-28T06:55:43.418Z,16.75
2019-02-28T06:56:41.485Z,16.66
2019-02-28T06:57:41.477Z,16.46
2019-02-28T06:58:41.475Z,16.56
2019-02-28T06:59:42.142Z,16.46
2019-02-28T07:00:44.147Z,16.46
2019-02-28T07:01:41.595Z,16.56
2019-02-28T07:02:41.369Z,16.66
2019-02-28T07:03:42.563Z,16.66
2019-02-28T07:04:41.542Z,16.75
2019-02-28T07:05:41.302Z,16.66
2019-02-28T07:06:41.300Z,16.66
2019-02-28T07:07:41.268Z,16.66
2019-02-28T07:08:41.250Z,16.75
2019-02-28T07:09:41.205Z,16.85
2019-02-28T07:10:41.571Z,16.85
2019-02-28T07:11:41.171Z,16.85
2019-02-28T07:12:41.153Z,16.66
2019-02-28T07:13:42.506Z,16.86
2019-02-28T07:14:40.876Z,16.75
2019-02-28T07:15:41.097Z,16.56
2019-02-28T07:16:41.119Z,16.66
2019-02-28T07:17:42.579Z,16.66
2019-02-28T07:18:41.010Z,16.86
2019-02-28T07:19:41.000Z,16.75
2019-02-28T07:20:40.994Z,16.85
2019-02-28T07:21:45.428Z,16.66
2019-02-28T07:22:42.515Z,16.66
2019-02-28T07:23:40.919Z,16.75
2019-02-28T07:24:40.899Z,16.66
2019-02-28T07:25:40.935Z,16.75
2019-02-28T07:26:40.841Z,16.75
2019-02-28T07:27:40.998Z,16.75
2019-02-28T07:28:40.797Z,16.76
2019-02-28T07:29:42.636Z,16.56
2019-02-28T07:30:40.769Z,16.56
2019-02-28T07:31:40.781Z,16.47
2019-02-28T07:32:40.729Z,16.66
2019-02-28T07:33:44.479Z,16.56
2019-02-28T07:34:40.509Z,16.85
2019-02-28T07:35:40.654Z,16.85
2019-02-28T07:36:41.443Z,16.85
2019-02-28T07:37:40.382Z,16.86
2019-02-28T07:38:40.585Z,16.66
2019-02-28T07:39:43.394Z,16.56
2019-02-28T07:40:40.544Z,16.85
2019-02-28T07:41:41.420Z,16.94
2019-02-28T07:42:41.077Z,17.04
2019-02-28T07:43:45.722Z,16.56
2019-02-28T07:44:40.482Z,16.85
2019-02-28T07:45:40.458Z,16.75
2019-02-28T07:46:44.317Z,16.75
2019-02-28T07:47:40.413Z,17.14
2019-02-28T07:48:40.372Z,17.14
2019-02-28T07:49:40.385Z,17.05
2019-02-28T07:50:43.416Z,16.96
2019-02-28T07:51:40.312Z,17.04
2019-02-28T07:52:40.294Z,16.85
2019-02-28T07:53:43.579Z,16.86
2019-02-28T07:54:40.252Z,16.96
2019-02-28T07:55:40.283Z,17.05
2019-02-28T07:56:45.244Z,16.86
2019-02-28T07:57:40.178Z,16.96
2019-02-28T07:58:40.220Z,16.96
2019-02-28T07:59:44.868Z,16.96
2019-02-28T08:00:40.131Z,16.96
2019-02-28T08:01:40.093Z,16.76
2019-02-28T08:02:42.231Z,16.86
2019-02-28T08:03:43.290Z,16.86
2019-02-28T08:04:40.121Z,16.86
2019-02-28T08:05:40.253Z,16.86
2019-02-28T08:06:42.509Z,16.96
2019-02-28T08:07:39.992Z,16.86
2019-02-28T08:08:39.963Z,16.86
2019-02-28T08:09:43.177Z,17.34
2019-02-28T08:10:39.902Z,17.24
2019-02-28T08:11:39.886Z,16.96
2019-02-28T08:12:39.862Z,17.44
2019-02-28T08:13:40.980Z,17.44
2019-02-28T08:14:39.817Z,17.43
2019-02-28T08:15:39.603Z,17.34
2019-02-28T08:16:39.860Z,16.96
2019-02-28T08:17:45.904Z,16.86
2019-02-28T08:18:39.743Z,17.24
2019-02-28T08:19:39.713Z,17.14
2019-02-28T08:20:39.695Z,17.05
2019-02-28T08:21:46.727Z,17.05
2019-02-28T08:22:39.658Z,17.24
2019-02-28T08:23:40.056Z,17.34
2019-02-28T08:24:39.610Z,17.44
2019-02-28T08:25:42.745Z,17.24
2019-02-28T08:26:39.580Z,17.14
2019-02-28T08:27:39.546Z,17.34
2019-02-28T08:28:39.529Z,17.34
2019-02-28T08:29:44.564Z,17.34
2019-02-28T08:30:39.551Z,17.34
2019-02-28T08:31:39.501Z,17.24
2019-02-28T08:32:47.055Z,17.33
2019-02-28T08:33:39.485Z,17.34
2019-02-28T08:34:39.389Z,17.24
2019-02-28T08:35:39.965Z,17.44
2019-02-28T08:36:39.380Z,17.05
2019-02-28T08:37:39.335Z,17.34
2019-02-28T08:38:39.318Z,17.14
2019-02-28T08:39:41.123Z,17.14
2019-02-28T08:40:39.313Z,17.24
2019-02-28T08:41:39.251Z,17.73
2019-02-28T08:42:42.109Z,17.54
2019-02-28T08:43:39.224Z,17.73
2019-02-28T08:44:39.201Z,17.63
2019-02-28T08:45:39.199Z,17.83
2019-02-28T08:46:39.209Z,17.63
2019-02-28T08:47:39.155Z,17.63
2019-02-28T08:48:39.096Z,17.63
2019-02-28T08:49:45.529Z,17.73
2019-02-28T08:50:39.086Z,17.63
2019-02-28T08:51:39.032Z,17.54
2019-02-28T08:52:43.443Z,17.63
2019-02-28T08:53:39.016Z,17.54
2019-02-28T08:54:38.975Z,17.54
2019-02-28T08:55:44.151Z,17.83
2019-02-28T08:56:38.922Z,17.73
2019-02-28T08:57:38.897Z,17.44
2019-02-28T08:58:42.552Z,17.44
2019-02-28T08:59:38.867Z,17.54
2019-02-28T09:00:40.139Z,17.73
2019-02-28T09:01:44.220Z,17.63
2019-02-28T09:02:38.569Z,17.73
2019-02-28T09:03:40.612Z,17.73
2019-02-28T09:04:44.860Z,17.83
2019-02-28T09:05:38.864Z,17.73
2019-02-28T09:06:43.210Z,17.63
2019-02-28T09:07:38.703Z,17.63
2019-02-28T09:08:38.677Z,17.54
2019-02-28T09:09:38.712Z,17.54
2019-02-28T09:10:39.925Z,17.63
2019-02-28T09:11:38.622Z,17.63
2019-02-28T09:12:38.618Z,17.92
2019-02-28T09:13:39.930Z,17.83
2019-02-28T09:14:38.535Z,18.12
2019-02-28T09:15:38.552Z,17.83
2019-02-28T09:16:41.843Z,17.92
2019-02-28T09:17:40.272Z,17.63
2019-02-28T09:18:38.560Z,17.92
2019-02-28T09:19:39.342Z,17.92
2019-02-28T09:20:41.303Z,17.83
2019-02-28T09:21:38.390Z,17.92
2019-02-28T09:22:38.398Z,17.92
2019-02-28T09:23:40.684Z,17.92
2019-02-28T09:24:38.425Z,17.73
2019-02-28T09:25:38.320Z,17.93
2019-02-28T09:26:38.296Z,17.93
2019-02-28T09:27:41.929Z,18.03
2019-02-28T09:28:38.252Z,18.13
2019-02-28T09:29:38.228Z,17.93
2019-02-28T09:30:38.196Z,18.41
2019-02-28T09:31:41.214Z,18.32
2019-02-28T09:32:38.154Z,18.31
2019-02-28T09:33:38.239Z,18.32
2019-02-28T09:34:38.111Z,18.32
2019-02-28T09:35:38.096Z,18.32
2019-02-28T09:36:38.067Z,18.31
2019-02-28T09:37:38.885Z,18.22
2019-02-28T09:38:38.036Z,18.31
2019-02-28T09:39:38.010Z,18.31
2019-02-28T09:40:38.054Z,18.32
2019-02-28T09:41:42.291Z,18.21
2019-02-28T09:42:37.969Z,18.32
2019-02-28T09:43:37.926Z,18.32
2019-02-28T09:44:37.901Z,18.32
2019-02-28T09:45:39.801Z,18.22
2019-02-28T09:46:37.943Z,17.93
2019-02-28T09:47:38.007Z,18.32
2019-02-28T09:48:40.273Z,18.41
2019-02-28T09:49:37.919Z,18.41
2019-02-28T09:50:37.784Z,18.41
2019-02-28T09:51:37.757Z,18.13
2019-02-28T09:52:43.875Z,18.13
2019-02-28T09:53:37.817Z,18.22
2019-02-28T09:54:37.445Z,18.32
2019-02-28T09:55:39.795Z,18.41
2019-02-28T09:56:37.659Z,18.32
2019-02-28T09:57:37.632Z,18.13
2019-02-28T09:58:37.740Z,18.22
2019-02-28T09:59:40.864Z,18.22
2019-02-28T10:00:37.586Z,18.32
2019-02-28T10:01:37.557Z,18.32
2019-02-28T10:02:40.389Z,18.13
2019-02-28T10:03:37.545Z,18.13
2019-02-28T10:04:37.477Z,18.13
2019-02-28T10:05:38.793Z,18.03
2019-02-28T10:06:37.440Z,18.13
2019-02-28T10:07:37.439Z,18.13
2019-02-28T10:08:40.195Z,18.22
2019-02-28T10:09:40.436Z,18.13
2019-02-28T10:10:37.382Z,18.32
2019-02-28T10:11:37.364Z,18.22
2019-02-28T10:12:39.391Z,18.13
2019-02-28T10:13:37.397Z,18.22
2019-02-28T10:14:37.278Z,18.32
2019-02-28T10:15:38.592Z,18.22
2019-02-28T10:16:37.253Z,18.32
2019-02-28T10:17:37.211Z,18.22
2019-02-28T10:18:38.738Z,18.13
2019-02-28T10:19:49.136Z,17.93
2019-02-28T10:20:37.150Z,18.32
2019-02-28T10:21:39.666Z,18.13
2019-02-28T10:22:37.131Z,18.13
2019-02-28T10:23:37.092Z,17.93
2019-02-28T10:24:37.064Z,18.03
2019-02-28T10:25:43.740Z,17.93
2019-02-28T10:26:37.090Z,18.13
2019-02-28T10:27:36.999Z,17.93
2019-02-28T10:28:36.982Z,17.93
2019-02-28T10:29:38.386Z,17.93
2019-02-28T10:30:36.928Z,18.03
2019-02-28T10:31:40.927Z,17.93
2019-02-28T10:32:37.000Z,17.83
2019-02-28T10:33:36.896Z,18.41
2019-02-28T10:34:37.854Z,18.41
2019-02-28T10:35:39.246Z,18.61
2019-02-28T10:36:37.124Z,18.61
2019-02-28T10:37:38.178Z,18.61
2019-02-28T10:38:36.973Z,18.71
2019-02-28T10:39:36.743Z,18.8
2019-02-28T10:40:36.715Z,18.9
2019-02-28T10:41:36.709Z,18.8
2019-02-28T10:42:42.302Z,18.81
2019-02-28T10:43:36.660Z,18.71
2019-02-28T10:44:36.644Z,18.62
2019-02-28T10:45:40.877Z,18.23
2019-02-28T10:46:38.514Z,18.22
2019-02-28T10:47:36.576Z,18.52
2019-02-28T10:48:50.396Z,18.62
2019-02-28T10:49:36.534Z,18.52
2019-02-28T10:50:36.519Z,18.71
2019-02-28T10:51:36.488Z,18.62
2019-02-28T10:52:36.494Z,18.61
2019-02-28T10:53:39.262Z,18.62
2019-02-28T10:54:36.626Z,18.33
2019-02-28T10:55:36.410Z,18.33
2019-02-28T10:56:36.390Z,18.62
2019-02-28T10:57:37.176Z,18.71
2019-02-28T10:58:36.341Z,18.71
2019-02-28T10:59:36.327Z,18.43
2019-02-28T11:00:36.309Z,18.33
2019-02-28T11:01:41.410Z,18.33
2019-02-28T11:02:36.254Z,18.62
2019-02-28T11:03:36.250Z,18.52
2019-02-28T11:04:36.226Z,18.43
2019-02-28T11:05:36.255Z,18.52
2019-02-28T11:06:36.169Z,18.43
2019-02-28T11:07:39.728Z,18.71
2019-02-28T11:08:36.165Z,18.62
2019-02-28T11:09:36.142Z,18.71
2019-02-28T11:10:38.617Z,18.71
2019-02-28T11:11:36.069Z,18.91
2019-02-28T11:12:36.090Z,18.62
2019-02-28T11:13:36.102Z,18.81
2019-02-28T11:14:40.677Z,18.81
2019-02-28T11:15:36.222Z,19.01
2019-02-28T11:16:36.189Z,18.71
2019-02-28T11:17:36.701Z,19.49
2019-02-28T11:18:36.480Z,19.4
2019-02-28T11:19:36.246Z,19.29
2019-02-28T11:20:36.381Z,19.96
2019-02-28T11:21:36.386Z,19.78
2019-02-28T11:22:39.698Z,19.96
2019-02-28T11:23:35.904Z,20.34
2019-02-28T11:24:35.824Z,20.15
2019-02-28T11:25:38.034Z,20.62
2019-02-28T11:26:35.790Z,20.24
2019-02-28T11:27:35.776Z,21.11
2019-02-28T11:28:35.718Z,20.82
2019-02-28T11:29:37.690Z,20.9
2019-02-28T11:30:36.175Z,20.81
2019-02-28T11:31:35.905Z,21.3
2019-02-28T11:32:35.666Z,21.39
2019-02-28T11:33:36.421Z,21.58
2019-02-28T11:34:35.580Z,21.57
2019-02-28T11:35:35.600Z,21.67
2019-02-28T11:36:37.121Z,22.06
2019-02-28T11:37:35.522Z,21.96
2019-02-28T11:38:35.490Z,22.06
2019-02-28T11:39:36.239Z,22.34
2019-02-28T11:40:35.452Z,22.34
2019-02-28T11:41:35.573Z,22.34
2019-02-28T11:42:35.501Z,22.14
2019-02-28T11:43:40.006Z,22.25
2019-02-28T11:44:35.385Z,22.06
2019-02-28T11:45:35.348Z,22.44
2019-02-28T11:46:38.227Z,22.63
2019-02-28T11:47:35.299Z,22.64
2019-02-28T11:48:35.335Z,22.43
2019-02-28T11:49:35.040Z,22.74
2019-02-28T11:50:35.349Z,22.74
2019-02-28T11:51:35.213Z,22.64
2019-02-28T11:52:35.198Z,22.44
2019-02-28T11:53:38.923Z,22.74
2019-02-28T11:54:35.151Z,22.83
2019-02-28T11:55:35.130Z,22.44
2019-02-28T11:56:35.113Z,22.34
2019-02-28T11:57:37.630Z,22.54
2019-02-28T11:58:35.065Z,22.54
2019-02-28T11:59:35.041Z,22.54
2019-02-28T12:00:38.973Z,23.12
2019-02-28T12:01:35.187Z,23.02
2019-02-28T12:02:34.981Z,22.83
2019-02-28T12:03:37.977Z,23.22
2019-02-28T12:04:37.368Z,23.32
2019-02-28T12:05:35.305Z,23.22
2019-02-28T12:06:34.884Z,23.12
2019-02-28T12:07:37.976Z,23.22
2019-02-28T12:08:34.853Z,23.12
2019-02-28T12:09:34.821Z,23.22
2019-02-28T12:10:35.103Z,23.32
2019-02-28T12:11:38.495Z,23.41
2019-02-28T12:12:34.758Z,23.41
2019-02-28T12:13:34.992Z,23.42
2019-02-28T12:14:34.744Z,23.23
2019-02-28T12:15:37.947Z,23.42
2019-02-28T12:16:35.293Z,23.41
2019-02-28T12:17:34.808Z,23.13
2019-02-28T12:18:39.452Z,23.03
2019-02-28T12:19:34.607Z,23.03
2019-02-28T12:20:34.574Z,23.33
2019-02-28T12:21:37.575Z,23.13
2019-02-28T12:22:34.551Z,23.42
2019-02-28T12:23:34.526Z,23.42
2019-02-28T12:24:35.576Z,23.33
2019-02-28T12:25:34.466Z,23.03
2019-02-28T12:26:34.461Z,23.42
2019-02-28T12:27:34.428Z,23.23
2019-02-28T12:28:35.146Z,23.13
2019-02-28T12:29:34.398Z,23.13
2019-02-28T12:30:34.371Z,23.23
2019-02-28T12:31:37.898Z,23.41
2019-02-28T12:32:34.450Z,23.42
2019-02-28T12:33:34.297Z,23.33
2019-02-28T12:34:34.271Z,23.02
2019-02-28T12:35:40.858Z,23.23
2019-02-28T12:36:34.265Z,23.23
2019-02-28T12:37:34.447Z,23.33
2019-02-28T12:38:34.195Z,23.13
2019-02-28T12:39:36.286Z,23.13
2019-02-28T12:40:34.233Z,23.23
2019-02-28T12:41:34.135Z,23.33
2019-02-28T12:42:37.058Z,23.13
2019-02-28T12:43:34.083Z,23.13
2019-02-28T12:44:34.053Z,23.23
2019-02-28T12:45:34.042Z,23.33
2019-02-28T12:46:35.028Z,23.03
2019-02-28T12:47:34.003Z,23.03
2019-02-28T12:48:33.987Z,23.42
2019-02-28T12:49:33.953Z,23.42
2019-02-28T12:50:33.926Z,23.23
2019-02-28T12:51:36.426Z,23.13
2019-02-28T12:52:33.897Z,23.23
2019-02-28T12:53:35.050Z,23.42
2019-02-28T12:54:36.523Z,23.61
2019-02-28T12:55:35.382Z,23.52